AirNav   Air Wisconsin Up To $57,000 Bonus
 
 426 users online  

4WN3 Lakewood Airpark
Lakewood, Wisconsin, USA

GOING TO LAKEWOOD?


FAA INFORMATION EFFECTIVE 11 AUGUST 2022

Location

FAA Identifier: 4WN3
Lat/Long: 45-19-55.3867N 088-32-09.5858W
45-19.923112N 088-32.159763W
45.3320519,-88.5359961
(estimated)
Elevation: 1300 ft. / 396 m (estimated)
From city: 2 miles NNW of LAKEWOOD, WI
Time zone: UTC -5 (UTC -6 during Standard Time)
Zip code: 54138

Airport Operations

Airport use: Private use. Permission required prior to landing
Activation date: 09/2004
Control tower: no
ARTCC: MINNEAPOLIS CENTER
FSS: GREEN BAY FLIGHT SERVICE STATION
Attendance: UNATNDD
Wind indicator: yes
Segmented circle: no

Nearby radio navigation aids

VOR radial/distance  VOR name  Freq  Var
IMTr214/34.1IRON MOUNTAIN VOR/DME111.2002W
MNMr284/38.6MENOMINEE VOR/DME109.6000E

Airport Services

Runway Information

Runway 9/27

Dimensions: 2500 x 150 ft. / 762 x 46 m
Surface: turf
RUNWAY 9  RUNWAY 27
Traffic pattern: leftleft

Airport Ownership and Management from official FAA records

Ownership: Privately-owned
Owner: LAKEWOOD AIRPARK LLC
15539 CESSNA LANE
LAKEWOOD, WI 54139
Manager: PHIL HARTMAN
15539 CESSNA LANE
LAKEWOOD, WI 54139
Phone 715-850-1206

Additional Remarks

FOR CD CTC MINNEAPOLIS ARTCC AT 651-463-5588.

Instrument Procedures

There are no published instrument procedures at 4WN3.

Some nearby airports with instrument procedures:

Y55 - Crandon/Steve Conway Municipal Airport (20 nm NW)
KAIG - Langlade County Airport (27 nm SW)
KEZS - Shawano Municipal Airport (33 nm S)
KIMT - Ford Airport (34 nm NE)
KOCQ - Oconto/J Douglas Bake Municipal Airport (38 nm SE)
 
Loc | Ops | Rwys | IFR | FBO | Links
Com | Nav | Svcs | Stats | Notes
Area around 4WN3 (Lakewood Airpark)
 
Road maps at: MapQuest Bing Google
 
Aerial photo
WARNING: Photo may not be current or correct
Aerial photo of 4WN3 (Lakewood Airpark)
Photo by William Knauth
looking west.

Do you have a better or more recent aerial photo of Lakewood Airpark that you would like to share? If so, please send us your photo.

 
Sectional chart

 
Airport distance calculator
Flying to Lakewood Airpark? Find the distance to fly.

From to 4WN3

Sunrise and sunset
Times for 14-Aug-2022
 Local
(UTC-5)
 Zulu
(UTC)
Morning civil twilight05:2310:23
Sunrise05:5510:55
Sunset20:0301:03
Evening civil twilight20:3501:35

Current date and time
Zulu (UTC)  14-Aug-2022 08:17:54
Local (UTC-5)  14-Aug-2022 03:17:54
 
METAR
KAIG 
32nm SW 
140755Z AUTO 05003KT 7SM OVC004 13/13 A3002 RMK AO2 T01310131
KEZS 
33nm S 
715-526-2967
140755Z AUTO 04005KT 5SM BR OVC003 17/17 A2999 RMK AO2 T01650165
KIMT 
34nm NE 
140754Z AUTO 00000KT 10SM OVC016 15/14 A3002 RMK AO2 SLP166 T01500144
KOCQ 
38nm SE 
140755Z AUTO 09003KT 10SM BKN012 OVC020 17/17 A2999 RMK AO1 T01680168
KMNM 
41nm E 
140804Z AUTO 08006KT 10SM SCT013 BKN020 OVC030 17/16 A3000 RMK AO2 PNO $
KRHI 
44nm NW 
140753Z AUTO 07003KT 9SM OVC004 14/13 A3004 RMK AO2 CIG 003V009 SLP172 T01390133
KCLI 
45nm S 
140755Z AUTO 03005KT 2 1/2SM BR OVC003 15/15 A2999 RMK AO2 T01500148
KEGV 
47nm NW 
140755Z AUTO 03004KT 10SM OVC009 14/14 A3003 RMK AO2 T01410141
TAF
KRHI 
44nm NW 
140520Z 1406/1506 08004KT P6SM OVC008 TEMPO 1406/1408 3SM -DZ BR BKN004 FM140800 06003KT P6SM -DZ OVC006 TEMPO 1408/1412 3SM -DZ BR BKN003 FM141500 05005KT P6SM BKN011 FM141700 04005KT P6SM BKN020 FM141900 03005KT P6SM BKN035 FM142000 04005KT P6SM SCT100
NOTAMs
Click for the latest NOTAMs
NOTAMs are issued by the DoD/FAA and will open in a separate window not controlled by AirNav.

 

 
 

Would you like to see your business listed on this page?

 If your business provides an interesting product or service to pilots, flight crews, aircraft, or users of the Lakewood Airpark, you should consider listing it here.  To start the listing process, click on the button below
 
Add a business
 

Other Pages about Lakewood Airpark

Update a link
 
Copyright © AirNav, LLC. All rights reserved. Privacy Policy  Contact